sensor_id;sensor_type;location;lat;lon;timestamp;pressure;altitude;pressure_sealevel;temperature;humidity
71974;BME280;59840;52.122;5.404;2023-01-08T00:00:56;100436.06;;;8.57;94.53
71974;BME280;59840;52.122;5.404;2023-01-08T00:03:23;100435.19;;;8.51;94.63
71974;BME280;59840;52.122;5.404;2023-01-08T00:05:50;100421.72;;;8.48;95.32
71974;BME280;59840;52.122;5.404;2023-01-08T00:08:17;100419.31;;;8.46;95.76
71974;BME280;59840;52.122;5.404;2023-01-08T00:10:43;100424.03;;;8.44;95.81
71974;BME280;59840;52.122;5.404;2023-01-08T00:13:10;100419.25;;;8.41;95.44
71974;BME280;59840;52.122;5.404;2023-01-08T00:15:36;100417.41;;;8.42;96.18
71974;BME280;59840;52.122;5.404;2023-01-08T00:18:03;100402.91;;;8.39;95.89
71974;BME280;59840;52.122;5.404;2023-01-08T00:20:32;100404.19;;;8.36;96.29
71974;BME280;59840;52.122;5.404;2023-01-08T00:22:58;100404.41;;;8.35;96.24
71974;BME280;59840;52.122;5.404;2023-01-08T00:25:25;100405.47;;;8.34;96.54
71974;BME280;59840;52.122;5.404;2023-01-08T00:27:51;100393.50;;;8.26;96.36
71974;BME280;59840;52.122;5.404;2023-01-08T00:30:19;100390.56;;;8.23;96.68
71974;BME280;59840;52.122;5.404;2023-01-08T00:32:45;100384.19;;;8.19;96.50
71974;BME280;59840;52.122;5.404;2023-01-08T00:35:12;100389.91;;;8.16;97.00
71974;BME280;59840;52.122;5.404;2023-01-08T00:37:38;100383.53;;;8.12;97.05
71974;BME280;59840;52.122;5.404;2023-01-08T00:40:05;100389.50;;;8.07;97.37
71974;BME280;59840;52.122;5.404;2023-01-08T00:42:32;100377.63;;;8.04;97.55
71974;BME280;59840;52.122;5.404;2023-01-08T00:44:58;100361.53;;;8.01;98.08
71974;BME280;59840;52.122;5.404;2023-01-08T00:47:25;100351.50;;;7.98;97.74
71974;BME280;59840;52.122;5.404;2023-01-08T00:49:51;100354.41;;;7.96;98.41
71974;BME280;59840;52.122;5.404;2023-01-08T00:52:18;100366.41;;;7.92;98.63
71974;BME280;59840;52.122;5.404;2023-01-08T00:54:44;100355.91;;;7.92;98.68
71974;BME280;59840;52.122;5.404;2023-01-08T00:57:11;100360.13;;;7.93;98.37
71974;BME280;59840;52.122;5.404;2023-01-08T00:59:37;100362.75;;;7.93;99.02
71974;BME280;59840;52.122;5.404;2023-01-08T01:02:04;100352.03;;;7.95;99.08
71974;BME280;59840;52.122;5.404;2023-01-08T01:04:31;100345.16;;;7.94;98.84
71974;BME280;59840;52.122;5.404;2023-01-08T01:06:57;100345.97;;;7.94;98.75
71974;BME280;59840;52.122;5.404;2023-01-08T01:09:24;100349.63;;;7.93;98.98
71974;BME280;59840;52.122;5.404;2023-01-08T01:11:50;100338.09;;;7.94;99.28
71974;BME280;59840;52.122;5.404;2023-01-08T01:14:17;100342.06;;;7.97;99.63
71974;BME280;59840;52.122;5.404;2023-01-08T01:16:43;100346.81;;;8.00;99.70
71974;BME280;59840;52.122;5.404;2023-01-08T01:19:10;100335.59;;;8.04;100.00
71974;BME280;59840;52.122;5.404;2023-01-08T01:21:37;100330.44;;;8.10;100.00
71974;BME280;59840;52.122;5.404;2023-01-08T01:24:05;100338.38;;;8.15;99.72
71974;BME280;59840;52.122;5.404;2023-01-08T01:26:33;100335.03;;;8.19;100.00
71974;BME280;59840;52.122;5.404;2023-01-08T01:29:00;100332.72;;;8.23;99.59
71974;BME280;59840;52.122;5.404;2023-01-08T01:31:29;100334.09;;;8.25;99.12
71974;BME280;59840;52.122;5.404;2023-01-08T01:33:56;100332.00;;;8.27;99.21
71974;BME280;59840;52.122;5.404;2023-01-08T01:36:24;100330.75;;;8.30;99.01
71974;BME280;59840;52.122;5.404;2023-01-08T01:38:53;100330.75;;;8.30;98.44
71974;BME280;59840;52.122;5.404;2023-01-08T01:43:53;100337.09;;;8.34;97.14
71974;BME280;59840;52.122;5.404;2023-01-08T01:49:03;100351.84;;;8.35;97.67
71974;BME280;59840;52.122;5.404;2023-01-08T01:51:33;100352.09;;;8.33;97.50
71974;BME280;59840;52.122;5.404;2023-01-08T01:54:03;100346.03;;;8.33;97.89
71974;BME280;59840;52.122;5.404;2023-01-08T01:56:31;100339.97;;;8.32;97.82
71974;BME280;59840;52.122;5.404;2023-01-08T01:58:57;100349.22;;;8.35;97.86
71974;BME280;59840;52.122;5.404;2023-01-08T02:01:25;100349.78;;;8.37;98.14
71974;BME280;59840;52.122;5.404;2023-01-08T02:03:52;100347.94;;;8.37;97.66
71974;BME280;59840;52.122;5.404;2023-01-08T02:06:34;100352.41;;;8.37;97.52
71974;BME280;59840;52.122;5.404;2023-01-08T02:09:11;100346.59;;;8.35;97.81
71974;BME280;59840;52.122;5.404;2023-01-08T02:12:04;100353.13;;;8.32;98.13
71974;BME280;59840;52.122;5.404;2023-01-08T02:15:05;100351.53;;;8.31;97.90
71974;BME280;59840;52.122;5.404;2023-01-08T02:17:34;100354.41;;;8.30;98.42
71974;BME280;59840;52.122;5.404;2023-01-08T02:20:07;100353.84;;;8.28;97.69
71974;BME280;59840;52.122;5.404;2023-01-08T02:28:25;100321.19;;;8.24;98.39
71974;BME280;59840;52.122;5.404;2023-01-08T02:30:53;100313.22;;;8.19;98.08
71974;BME280;59840;52.122;5.404;2023-01-08T02:33:22;100317.91;;;8.17;99.15
71974;BME280;59840;52.122;5.404;2023-01-08T02:38:49;100310.28;;;8.15;98.97
71974;BME280;59840;52.122;5.404;2023-01-08T02:41:22;100317.13;;;8.16;98.73
71974;BME280;59840;52.122;5.404;2023-01-08T02:43:52;100323.41;;;8.15;98.75
71974;BME280;59840;52.122;5.404;2023-01-08T02:46:25;100315.28;;;8.17;98.21
71974;BME280;59840;52.122;5.404;2023-01-08T02:48:56;100311.63;;;8.18;98.68
71974;BME280;59840;52.122;5.404;2023-01-08T02:51:33;100312.44;;;8.18;98.98
71974;BME280;59840;52.122;5.404;2023-01-08T02:54:04;100316.88;;;8.18;98.97
71974;BME280;59840;52.122;5.404;2023-01-08T02:56:35;100308.75;;;8.19;98.66
71974;BME280;59840;52.122;5.404;2023-01-08T02:59:04;100311.38;;;8.19;98.80
71974;BME280;59840;52.122;5.404;2023-01-08T03:01:32;100319.03;;;8.21;98.44
71974;BME280;59840;52.122;5.404;2023-01-08T03:04:07;100308.75;;;8.19;98.53
71974;BME280;59840;52.122;5.404;2023-01-08T03:06:37;100307.16;;;8.18;98.87
71974;BME280;59840;52.122;5.404;2023-01-08T03:09:04;100303.75;;;8.18;99.02
71974;BME280;59840;52.122;5.404;2023-01-08T03:11:37;100314.75;;;8.15;98.49
71974;BME280;59840;52.122;5.404;2023-01-08T03:14:09;100312.09;;;8.15;99.27
71974;BME280;59840;52.122;5.404;2023-01-08T03:16:40;100300.00;;;8.14;99.70
71974;BME280;59840;52.122;5.404;2023-01-08T03:19:19;100302.06;;;8.12;99.31
71974;BME280;59840;52.122;5.404;2023-01-08T03:21:48;100302.56;;;8.08;99.31
71974;BME280;59840;52.122;5.404;2023-01-08T03:24:21;100305.41;;;8.07;99.60
71974;BME280;59840;52.122;5.404;2023-01-08T03:26:49;100305.09;;;8.03;99.73
71974;BME280;59840;52.122;5.404;2023-01-08T03:29:18;100300.88;;;8.02;99.59
71974;BME280;59840;52.122;5.404;2023-01-08T03:31:47;100300.88;;;8.02;99.60
71974;BME280;59840;52.122;5.404;2023-01-08T03:34:17;100299.78;;;7.98;99.89
71974;BME280;59840;52.122;5.404;2023-01-08T03:36:47;100303.44;;;7.97;100.00
71974;BME280;59840;52.122;5.404;2023-01-08T03:39:22;100305.78;;;7.94;99.86
71974;BME280;59840;52.122;5.404;2023-01-08T03:41:52;100301.78;;;7.91;100.00
71974;BME280;59840;52.122;5.404;2023-01-08T03:44:21;100302.03;;;7.90;100.00
71974;BME280;59840;52.122;5.404;2023-01-08T03:46:50;100286.50;;;7.88;100.00
71974;BME280;59840;52.122;5.404;2023-01-08T03:49:18;100286.50;;;7.88;100.00
71974;BME280;59840;52.122;5.404;2023-01-08T03:51:46;100275.19;;;7.88;100.00
71974;BME280;59840;52.122;5.404;2023-01-08T03:54:17;100285.72;;;7.88;100.00
71974;BME280;59840;52.122;5.404;2023-01-08T03:56:44;100290.16;;;7.87;100.00
71974;BME280;59840;52.122;5.404;2023-01-08T03:59:12;100290.16;;;7.87;100.00
71974;BME280;59840;52.122;5.404;2023-01-08T04:01:39;100295.41;;;7.87;100.00
71974;BME280;59840;52.122;5.404;2023-01-08T04:04:06;100292.22;;;7.85;100.00
71974;BME280;59840;52.122;5.404;2023-01-08T04:06:33;100290.63;;;7.84;100.00
71974;BME280;59840;52.122;5.404;2023-01-08T04:09:00;100299.56;;;7.83;100.00
71974;BME280;59840;52.122;5.404;2023-01-08T04:11:26;100303.53;;;7.86;100.00
71974;BME280;59840;52.122;5.404;2023-01-08T04:13:53;100297.00;;;7.88;100.00
71974;BME280;59840;52.122;5.404;2023-01-08T04:16:20;100304.66;;;7.90;100.00
71974;BME280;59840;52.122;5.404;2023-01-08T04:18:46;100293.34;;;7.89;100.00
71974;BME280;59840;52.122;5.404;2023-01-08T04:21:13;100305.44;;;7.90;100.00
71974;BME280;59840;52.122;5.404;2023-01-08T04:23:39;100287.06;;;7.90;100.00
71974;BME280;59840;52.122;5.404;2023-01-08T04:26:07;100262.84;;;7.88;100.00
71974;BME280;59840;52.122;5.404;2023-01-08T04:28:34;100267.56;;;7.86;100.00
71974;BME280;59840;52.122;5.404;2023-01-08T04:31:05;100274.31;;;7.82;100.00
71974;BME280;59840;52.122;5.404;2023-01-08T04:33:33;100278.22;;;7.80;100.00
71974;BME280;59840;52.122;5.404;2023-01-08T04:35:59;100274.25;;;7.77;99.87
71974;BME280;59840;52.122;5.404;2023-01-08T04:38:26;100270.03;;;7.76;99.94
71974;BME280;59840;52.122;5.404;2023-01-08T04:40:59;100269.47;;;7.74;99.89
71974;BME280;59840;52.122;5.404;2023-01-08T04:43:27;100276.31;;;7.75;99.82
71974;BME280;59840;52.122;5.404;2023-01-08T04:45:58;100268.66;;;7.73;99.58
71974;BME280;59840;52.122;5.404;2023-01-08T04:48:26;100263.66;;;7.72;99.64
71974;BME280;59840;52.122;5.404;2023-01-08T04:50:52;100250.75;;;7.70;99.27
71974;BME280;59840;52.122;5.404;2023-01-08T04:53:19;100249.41;;;7.68;99.35
71974;BME280;59840;52.122;5.404;2023-01-08T04:55:45;100259.59;;;7.64;98.90
71974;BME280;59840;52.122;5.404;2023-01-08T04:58:12;100253.50;;;7.59;98.82
71974;BME280;59840;52.122;5.404;2023-01-08T05:00:39;100257.06;;;7.53;98.79
71974;BME280;59840;52.122;5.404;2023-01-08T05:03:06;100264.84;;;7.48;99.00
71974;BME280;59840;52.122;5.404;2023-01-08T05:05:33;100255.84;;;7.44;98.97
71974;BME280;59840;52.122;5.404;2023-01-08T05:08:00;100261.34;;;7.42;99.21
71974;BME280;59840;52.122;5.404;2023-01-08T05:10:26;100260.53;;;7.42;99.24
71974;BME280;59840;52.122;5.404;2023-01-08T05:13:00;100254.72;;;7.39;99.14
71974;BME280;59840;52.122;5.404;2023-01-08T05:15:27;100258.16;;;7.40;99.20
71974;BME280;59840;52.122;5.404;2023-01-08T05:18:01;100249.25;;;7.41;99.21
71974;BME280;59840;52.122;5.404;2023-01-08T05:20:28;100250.50;;;7.38;99.53
71974;BME280;59840;52.122;5.404;2023-01-08T05:22:55;100244.13;;;7.34;99.37
71974;BME280;59840;52.122;5.404;2023-01-08T05:25:23;100251.47;;;7.32;99.93
71974;BME280;59840;52.122;5.404;2023-01-08T05:27:51;100253.47;;;7.25;99.24
71974;BME280;59840;52.122;5.404;2023-01-08T05:30:17;100247.56;;;7.18;99.73
71974;BME280;59840;52.122;5.404;2023-01-08T05:32:44;100257.16;;;7.13;99.84
71974;BME280;59840;52.122;5.404;2023-01-08T05:35:10;100259.13;;;7.05;99.53
71974;BME280;59840;52.122;5.404;2023-01-08T05:37:37;100258.47;;;6.98;99.59
71974;BME280;59840;52.122;5.404;2023-01-08T05:40:04;100262.34;;;6.96;100.00
71974;BME280;59840;52.122;5.404;2023-01-08T05:42:33;100267.03;;;6.94;99.74
71974;BME280;59840;52.122;5.404;2023-01-08T05:45:04;100253.63;;;6.90;99.99
71974;BME280;59840;52.122;5.404;2023-01-08T05:47:32;100253.06;;;6.88;100.00
71974;BME280;59840;52.122;5.404;2023-01-08T05:49:59;100260.59;;;6.85;100.00
71974;BME280;59840;52.122;5.404;2023-01-08T05:52:26;100256.03;;;6.80;100.00
71974;BME280;59840;52.122;5.404;2023-01-08T05:54:52;100261.50;;;6.79;100.00
71974;BME280;59840;52.122;5.404;2023-01-08T05:57:19;100258.31;;;6.77;100.00
71974;BME280;59840;52.122;5.404;2023-01-08T05:59:46;100263.00;;;6.75;100.00
71974;BME280;59840;52.122;5.404;2023-01-08T06:02:12;100255.03;;;6.69;100.00
71974;BME280;59840;52.122;5.404;2023-01-08T06:04:39;100257.31;;;6.66;100.00
71974;BME280;59840;52.122;5.404;2023-01-08T06:07:05;100254.59;;;6.61;100.00
71974;BME280;59840;52.122;5.404;2023-01-08T06:09:32;100256.91;;;6.57;100.00
71974;BME280;59840;52.122;5.404;2023-01-08T06:11:58;100255.22;;;6.51;100.00
71974;BME280;59840;52.122;5.404;2023-01-08T06:14:25;100260.13;;;6.48;100.00
71974;BME280;59840;52.122;5.404;2023-01-08T06:16:51;100250.31;;;6.43;100.00
71974;BME280;59840;52.122;5.404;2023-01-08T06:19:18;100255.47;;;6.38;100.00
71974;BME280;59840;52.122;5.404;2023-01-08T06:21:44;100251.25;;;6.37;100.00
71974;BME280;59840;52.122;5.404;2023-01-08T06:24:11;100252.28;;;6.36;100.00
71974;BME280;59840;52.122;5.404;2023-01-08T06:26:38;100253.06;;;6.36;100.00
71974;BME280;59840;52.122;5.404;2023-01-08T06:29:04;100250.66;;;6.35;100.00
71974;BME280;59840;52.122;5.404;2023-01-08T06:31:31;100243.03;;;6.33;100.00
71974;BME280;59840;52.122;5.404;2023-01-08T06:33:58;100256.81;;;6.29;100.00
71974;BME280;59840;52.122;5.404;2023-01-08T06:36:24;100258.31;;;6.25;100.00
71974;BME280;59840;52.122;5.404;2023-01-08T06:38:51;100263.00;;;6.23;100.00
71974;BME280;59840;52.122;5.404;2023-01-08T06:41:17;100256.63;;;6.19;100.00
71974;BME280;59840;52.122;5.404;2023-01-08T06:43:44;100264.38;;;6.14;100.00
71974;BME280;59840;52.122;5.404;2023-01-08T06:46:11;100265.41;;;6.13;100.00
71974;BME280;59840;52.122;5.404;2023-01-08T06:48:37;100270.06;;;6.11;100.00
71974;BME280;59840;52.122;5.404;2023-01-08T06:51:04;100268.94;;;6.07;100.00
71974;BME280;59840;52.122;5.404;2023-01-08T06:53:31;100269.84;;;6.00;100.00
71974;BME280;59840;52.122;5.404;2023-01-08T06:55:58;100272.34;;;5.95;100.00
71974;BME280;59840;52.122;5.404;2023-01-08T06:58:25;100264.72;;;5.94;100.00
71974;BME280;59840;52.122;5.404;2023-01-08T07:00:52;100270.97;;;5.93;100.00
71974;BME280;59840;52.122;5.404;2023-01-08T07:03:19;100275.63;;;5.91;100.00
71974;BME280;59840;52.122;5.404;2023-01-08T07:05:46;100278.94;;;5.86;100.00
71974;BME280;59840;52.122;5.404;2023-01-08T07:08:13;100282.00;;;5.83;100.00
71974;BME280;59840;52.122;5.404;2023-01-08T07:10:43;100281.88;;;5.78;100.00
71974;BME280;59840;52.122;5.404;2023-01-08T07:13:10;100274.69;;;5.73;100.00
71974;BME280;59840;52.122;5.404;2023-01-08T07:15:41;100284.81;;;5.70;100.00
71974;BME280;59840;52.122;5.404;2023-01-08T07:18:10;100280.81;;;5.67;100.00
71974;BME280;59840;52.122;5.404;2023-01-08T07:20:37;100271.59;;;5.65;100.00
71974;BME280;59840;52.122;5.404;2023-01-08T07:23:05;100273.63;;;5.63;100.00
71974;BME280;59840;52.122;5.404;2023-01-08T07:25:32;100267.59;;;5.62;100.00
71974;BME280;59840;52.122;5.404;2023-01-08T07:27:59;100270.22;;;5.62;100.00
71974;BME280;59840;52.122;5.404;2023-01-08T07:30:26;100261.81;;;5.60;100.00
71974;BME280;59840;52.122;5.404;2023-01-08T07:33:02;100265.22;;;5.61;100.00
71974;BME280;59840;52.122;5.404;2023-01-08T07:35:29;100259.97;;;5.61;100.00
71974;BME280;59840;52.122;5.404;2023-01-08T07:37:55;100260.44;;;5.58;100.00
71974;BME280;59840;52.122;5.404;2023-01-08T07:40:23;100250.19;;;5.56;100.00
71974;BME280;59840;52.122;5.404;2023-01-08T07:43:00;100251.78;;;5.57;100.00
71974;BME280;59840;52.122;5.404;2023-01-08T07:45:28;100248.84;;;5.54;100.00
71974;BME280;59840;52.122;5.404;2023-01-08T07:47:56;100248.59;;;5.55;100.00
71974;BME280;59840;52.122;5.404;2023-01-08T07:50:23;100247.78;;;5.55;100.00
71974;BME280;59840;52.122;5.404;2023-01-08T07:52:50;100250.19;;;5.56;100.00
71974;BME280;59840;52.122;5.404;2023-01-08T07:55:17;100247.56;;;5.56;100.00
71974;BME280;59840;52.122;5.404;2023-01-08T07:57:43;100248.03;;;5.53;100.00
71974;BME280;59840;52.122;5.404;2023-01-08T08:00:10;100249.66;;;5.54;100.00
71974;BME280;59840;52.122;5.404;2023-01-08T08:02:37;100257.72;;;5.53;100.00
71974;BME280;59840;52.122;5.404;2023-01-08T08:05:04;100244.63;;;5.53;100.00
71974;BME280;59840;52.122;5.404;2023-01-08T08:07:30;100249.66;;;5.54;100.00
71974;BME280;59840;52.122;5.404;2023-01-08T08:09:57;100245.19;;;5.55;100.00
71974;BME280;59840;52.122;5.404;2023-01-08T08:12:24;100251.78;;;5.57;100.00
71974;BME280;59840;52.122;5.404;2023-01-08T08:14:50;100244.50;;;5.59;100.00
71974;BME280;59840;52.122;5.404;2023-01-08T08:17:17;100253.94;;;5.60;100.00
71974;BME280;59840;52.122;5.404;2023-01-08T08:19:43;100252.47;;;5.64;100.00
71974;BME280;59840;52.122;5.404;2023-01-08T08:22:14;100258.06;;;5.68;100.00
71974;BME280;59840;52.122;5.404;2023-01-08T08:24:40;100255.44;;;5.68;100.00
71974;BME280;59840;52.122;5.404;2023-01-08T08:27:07;100249.75;;;5.71;100.00
71974;BME280;59840;52.122;5.404;2023-01-08T08:29:33;100249.31;;;5.74;100.00
71974;BME280;59840;52.122;5.404;2023-01-08T08:32:00;100243.63;;;5.77;100.00
71974;BME280;59840;52.122;5.404;2023-01-08T08:34:26;100240.56;;;5.80;100.00
71974;BME280;59840;52.122;5.404;2023-01-08T08:36:53;100234.06;;;5.83;99.94
71974;BME280;59840;52.122;5.404;2023-01-08T08:39:19;100227.81;;;5.84;99.63
71974;BME280;59840;52.122;5.404;2023-01-08T08:41:46;100226.00;;;5.84;99.65
71974;BME280;59840;52.122;5.404;2023-01-08T08:44:12;100221.09;;;5.88;98.88
71974;BME280;59840;52.122;5.404;2023-01-08T08:46:39;100212.25;;;5.89;98.76
71974;BME280;59840;52.122;5.404;2023-01-08T08:49:05;100212.44;;;5.87;99.10
71974;BME280;59840;52.122;5.404;2023-01-08T08:51:32;100207.66;;;5.84;99.03
71974;BME280;59840;52.122;5.404;2023-01-08T08:53:58;100195.59;;;5.83;98.78
71974;BME280;59840;52.122;5.404;2023-01-08T08:56:25;100205.50;;;5.81;98.69
71974;BME280;59840;52.122;5.404;2023-01-08T08:58:55;100199.25;;;5.82;98.91
71974;BME280;59840;52.122;5.404;2023-01-08T09:01:23;100206.53;;;5.80;98.92
71974;BME280;59840;52.122;5.404;2023-01-08T09:03:50;100204.47;;;5.82;98.48
71974;BME280;59840;52.122;5.404;2023-01-08T09:06:16;100197.66;;;5.81;98.34
71974;BME280;59840;52.122;5.404;2023-01-08T09:08:43;100197.66;;;5.81;98.47
71974;BME280;59840;52.122;5.404;2023-01-08T09:11:09;100200.03;;;5.83;98.75
71974;BME280;59840;52.122;5.404;2023-01-08T09:13:39;100194.47;;;5.91;98.30
71974;BME280;59840;52.122;5.404;2023-01-08T09:16:06;100201.19;;;5.98;98.36
71974;BME280;59840;52.122;5.404;2023-01-08T09:18:32;100200.03;;;6.06;97.91
71974;BME280;59840;52.122;5.404;2023-01-08T09:21:03;100209.81;;;6.11;97.83
71974;BME280;59840;52.122;5.404;2023-01-08T09:23:30;100204.69;;;6.16;97.54
71974;BME280;59840;52.122;5.404;2023-01-08T09:26:00;100199.56;;;6.21;97.39
71974;BME280;59840;52.122;5.404;2023-01-08T09:28:27;100194.41;;;6.26;97.58
71974;BME280;59840;52.122;5.404;2023-01-08T09:30:54;100199.75;;;6.31;96.87
71974;BME280;59840;52.122;5.404;2023-01-08T09:33:21;100199.88;;;6.36;97.08
71974;BME280;59840;52.122;5.404;2023-01-08T09:35:47;100212.03;;;6.42;96.47
71974;BME280;59840;52.122;5.404;2023-01-08T09:38:14;100205.31;;;6.46;96.58
71974;BME280;59840;52.122;5.404;2023-01-08T09:40:52;100205.66;;;6.50;96.24
71974;BME280;59840;52.122;5.404;2023-01-08T09:43:22;100205.97;;;6.53;95.89
71974;BME280;59840;52.122;5.404;2023-01-08T09:45:52;100209.47;;;6.59;95.86
71974;BME280;59840;52.122;5.404;2023-01-08T09:48:23;100201.47;;;6.65;95.55
71974;BME280;59840;52.122;5.404;2023-01-08T09:50:51;100201.56;;;6.70;96.01
71974;BME280;59840;52.122;5.404;2023-01-08T09:53:18;100194.84;;;6.75;95.39
71974;BME280;59840;52.122;5.404;2023-01-08T09:55:54;100196.75;;;6.79;95.57
71974;BME280;59840;52.122;5.404;2023-01-08T09:58:52;100198.69;;;6.84;95.21
71974;BME280;59840;52.122;5.404;2023-01-08T10:01:26;100199.34;;;6.91;95.39
71974;BME280;59840;52.122;5.404;2023-01-08T10:04:27;100197.34;;;6.98;94.87
71974;BME280;59840;52.122;5.404;2023-01-08T10:07:20;100192.75;;;7.05;94.79
71974;BME280;59840;52.122;5.404;2023-01-08T10:09:47;100197.53;;;7.08;94.76
71974;BME280;59840;52.122;5.404;2023-01-08T10:12:25;100194.44;;;7.11;94.76
71974;BME280;59840;52.122;5.404;2023-01-08T10:14:59;100195.31;;;7.17;94.64
71974;BME280;59840;52.122;5.404;2023-01-08T10:17:40;100184.44;;;7.25;94.70
71974;BME280;59840;52.122;5.404;2023-01-08T10:20:12;100190.22;;;7.44;94.46
71974;BME280;59840;52.122;5.404;2023-01-08T10:22:39;100186.34;;;7.46;94.05
71974;BME280;59840;52.122;5.404;2023-01-08T10:25:12;100183.78;;;7.51;93.74
71974;BME280;59840;52.122;5.404;2023-01-08T10:28:00;100182.13;;;7.62;93.81
71974;BME280;59840;52.122;5.404;2023-01-08T10:30:34;100174.06;;;7.68;93.60
71974;BME280;59840;52.122;5.404;2023-01-08T10:33:04;100168.47;;;7.82;93.45
71974;BME280;59840;52.122;5.404;2023-01-08T10:35:34;100166.31;;;7.95;93.26
71974;BME280;59840;52.122;5.404;2023-01-08T10:38:01;100158.03;;;8.08;92.86
71974;BME280;59840;52.122;5.404;2023-01-08T10:43:21;100150.00;;;8.37;92.48
71974;BME280;59840;52.122;5.404;2023-01-08T10:48:35;100141.91;;;8.44;91.20
71974;BME280;59840;52.122;5.404;2023-01-08T10:51:13;100142.03;;;8.54;91.45
71974;BME280;59840;52.122;5.404;2023-01-08T10:53:41;100143.19;;;8.63;90.79
71974;BME280;59840;52.122;5.404;2023-01-08T10:56:20;100138.41;;;8.60;90.64
71974;BME280;59840;52.122;5.404;2023-01-08T10:58:48;100138.38;;;8.55;90.69
71974;BME280;59840;52.122;5.404;2023-01-08T11:01:25;100140.69;;;8.51;90.05
71974;BME280;59840;52.122;5.404;2023-01-08T11:04:00;100135.19;;;8.53;90.46
71974;BME280;59840;52.122;5.404;2023-01-08T11:06:33;100130.78;;;8.58;90.35
71974;BME280;59840;52.122;5.404;2023-01-08T11:09:38;100121.09;;;8.64;90.80
71974;BME280;59840;52.122;5.404;2023-01-08T11:14:56;100120.88;;;8.70;89.88
71974;BME280;59840;52.122;5.404;2023-01-08T11:17:26;100111.66;;;8.68;89.36
71974;BME280;59840;52.122;5.404;2023-01-08T11:19:53;100111.91;;;8.66;89.11
71974;BME280;59840;52.122;5.404;2023-01-08T11:22:24;100113.53;;;8.72;89.46
71974;BME280;59840;52.122;5.404;2023-01-08T11:24:52;100108.88;;;8.80;88.84
71974;BME280;59840;52.122;5.404;2023-01-08T11:27:31;100100.72;;;8.81;89.30
71974;BME280;59840;52.122;5.404;2023-01-08T11:30:09;100098.00;;;8.98;89.34
71974;BME280;59840;52.122;5.404;2023-01-08T11:33:21;100098.34;;;9.12;88.16
71974;BME280;59840;52.122;5.404;2023-01-08T11:35:31;100094.91;;;9.11;88.17
71974;BME280;59840;52.122;5.404;2023-01-08T11:38:00;100078.78;;;9.02;88.17
71974;BME280;59840;52.122;5.404;2023-01-08T12:02:52;100042.47;;;9.47;87.29
71974;BME280;59840;52.122;5.404;2023-01-08T12:08:34;100028.06;;;9.59;85.40
71974;BME280;59840;52.122;5.404;2023-01-08T12:11:21;100031.47;;;9.55;85.17
71974;BME280;59840;52.122;5.404;2023-01-08T12:19:19;100014.81;;;9.44;84.77
71974;BME280;59840;52.122;5.404;2023-01-08T12:22:03;100011.94;;;9.46;84.06
71974;BME280;59840;52.122;5.404;2023-01-08T12:27:53;100018.50;;;9.43;85.11
71974;BME280;59840;52.122;5.404;2023-01-08T12:35:50;100023.00;;;9.48;84.10
71974;BME280;59840;52.122;5.404;2023-01-08T12:38:29;100021.38;;;9.41;83.69
71974;BME280;59840;52.122;5.404;2023-01-08T12:41:08;100019.28;;;9.44;83.98
71974;BME280;59840;52.122;5.404;2023-01-08T12:43:50;100009.59;;;9.54;84.55
71974;BME280;59840;52.122;5.404;2023-01-08T12:46:19;100013.81;;;9.55;83.27
71974;BME280;59840;52.122;5.404;2023-01-08T12:48:49;100004.06;;;9.51;83.87
71974;BME280;59840;52.122;5.404;2023-01-08T12:54:18;99991.44;;;9.53;83.63
71974;BME280;59840;52.122;5.404;2023-01-08T12:57:24;99979.31;;;9.57;83.78
71974;BME280;59840;52.122;5.404;2023-01-08T13:00:15;99984.09;;;9.65;83.72
71974;BME280;59840;52.122;5.404;2023-01-08T13:02:59;99970.09;;;9.54;83.01
71974;BME280;59840;52.122;5.404;2023-01-08T13:05:28;99975.31;;;9.44;82.37
71974;BME280;59840;52.122;5.404;2023-01-08T13:07:58;99975.56;;;9.43;82.72
71974;BME280;59840;52.122;5.404;2023-01-08T13:10:37;99976.13;;;9.50;83.53
71974;BME280;59840;52.122;5.404;2023-01-08T13:13:43;99976.69;;;9.57;82.79
71974;BME280;59840;52.122;5.404;2023-01-08T13:18:37;99965.13;;;9.73;82.03
71974;BME280;59840;52.122;5.404;2023-01-08T13:21:04;99968.84;;;9.77;82.10
71974;BME280;59840;52.122;5.404;2023-01-08T13:23:33;99964.09;;;9.69;81.94
71974;BME280;59840;52.122;5.404;2023-01-08T13:26:02;99954.03;;;9.56;81.05
71974;BME280;59840;52.122;5.404;2023-01-08T13:28:41;99951.63;;;9.44;81.68
71974;BME280;59840;52.122;5.404;2023-01-08T13:31:25;99947.66;;;9.41;81.83
71974;BME280;59840;52.122;5.404;2023-01-08T13:33:54;99952.94;;;9.47;81.18
71974;BME280;59840;52.122;5.404;2023-01-08T13:41:43;99936.91;;;9.48;80.64
71974;BME280;59840;52.122;5.404;2023-01-08T13:44:32;99932.66;;;9.42;80.53
71974;BME280;59840;52.122;5.404;2023-01-08T13:47:04;99930.53;;;9.39;80.23
71974;BME280;59840;52.122;5.404;2023-01-08T13:49:41;99924.72;;;9.37;80.43
71974;BME280;59840;52.122;5.404;2023-01-08T13:52:37;99922.91;;;9.32;80.52
71974;BME280;59840;52.122;5.404;2023-01-08T13:55:29;99918.16;;;9.29;80.19
71974;BME280;59840;52.122;5.404;2023-01-08T13:58:00;99913.41;;;9.26;80.59
71974;BME280;59840;52.122;5.404;2023-01-08T14:00:44;99897.84;;;9.25;80.94
71974;BME280;59840;52.122;5.404;2023-01-08T14:03:36;99907.06;;;9.22;80.49
71974;BME280;59840;52.122;5.404;2023-01-08T14:11:44;99905.16;;;9.13;79.54
71974;BME280;59840;52.122;5.404;2023-01-08T14:14:15;99905.91;;;9.03;79.90
71974;BME280;59840;52.122;5.404;2023-01-08T14:16:43;99904.03;;;8.93;79.82
71974;BME280;59840;52.122;5.404;2023-01-08T14:19:14;99915.31;;;8.84;79.79
71974;BME280;59840;52.122;5.404;2023-01-08T14:22:00;99909.75;;;8.80;80.77
71974;BME280;59840;52.122;5.404;2023-01-08T14:24:30;99906.88;;;8.82;80.01
71974;BME280;59840;52.122;5.404;2023-01-08T14:26:58;99899.53;;;8.84;80.27
71974;BME280;59840;52.122;5.404;2023-01-08T14:29:27;99892.16;;;8.86;80.27
71974;BME280;59840;52.122;5.404;2023-01-08T14:31:57;99887.44;;;8.88;79.57